sensor_id;sensor_type;location;lat;lon;timestamp;pressure;altitude;pressure_sealevel;temperature;humidity
7990;BME280;4040;42.848;23.034;2023-04-27T00:01:36;94493.66;;;5.43;100.00
7990;BME280;4040;42.848;23.034;2023-04-27T00:07:24;94512.75;;;5.52;100.00
7990;BME280;4040;42.848;23.034;2023-04-27T00:13:15;94502.03;;;5.45;99.23
7990;BME280;4040;42.848;23.034;2023-04-27T00:19:03;94472.25;;;5.33;95.99
7990;BME280;4040;42.848;23.034;2023-04-27T00:24:53;94548.72;;;5.72;97.40
7990;BME280;4040;42.848;23.034;2023-04-27T00:30:43;94493.47;;;5.05;100.00
7990;BME280;4040;42.848;23.034;2023-04-27T00:36:32;94502.97;;;5.02;100.00
7990;BME280;4040;42.848;23.034;2023-04-27T00:42:21;94532.53;;;5.41;100.00
7990;BME280;4040;42.848;23.034;2023-04-27T00:48:12;94520.94;;;5.09;100.00
7990;BME280;4040;42.848;23.034;2023-04-27T00:54:01;94525.41;;;4.88;100.00
7990;BME280;4040;42.848;23.034;2023-04-27T00:59:50;94644.81;;;5.58;100.00
7990;BME280;4040;42.848;23.034;2023-04-27T01:09:53;94533.59;;;4.65;100.00
7990;BME280;4040;42.848;23.034;2023-04-27T01:15:41;94670.66;;;5.40;100.00
7990;BME280;4040;42.848;23.034;2023-04-27T01:21:30;94579.38;;;4.71;100.00
7990;BME280;4040;42.848;23.034;2023-04-27T01:27:21;94674.47;;;5.39;100.00
7990;BME280;4040;42.848;23.034;2023-04-27T01:33:09;94625.34;;;5.00;100.00
7990;BME280;4040;42.848;23.034;2023-04-27T01:38:58;94674.28;;;5.15;100.00
7990;BME280;4040;42.848;23.034;2023-04-27T01:44:48;94680.25;;;5.01;100.00
7990;BME280;4040;42.848;23.034;2023-04-27T01:50:37;94673.28;;;4.87;100.00
7990;BME280;4040;42.848;23.034;2023-04-27T01:56:26;94653.91;;;4.53;100.00
7990;BME280;4040;42.848;23.034;2023-04-27T02:02:16;94680.47;;;4.82;100.00
7990;BME280;4040;42.848;23.034;2023-04-27T02:12:26;94651.19;;;4.89;100.00
7990;BME280;4040;42.848;23.034;2023-04-27T02:18:16;94672.91;;;4.91;100.00
7990;BME280;4040;42.848;23.034;2023-04-27T02:24:05;94686.16;;;4.78;100.00
7990;BME280;4040;42.848;23.034;2023-04-27T02:29:54;94450.59;;;3.07;100.00
7990;BME280;4040;42.848;23.034;2023-04-27T02:35:44;94540.88;;;3.52;100.00
7990;BME280;4040;42.848;23.034;2023-04-27T02:41:33;94538.59;;;3.50;100.00
7990;BME280;4040;42.848;23.034;2023-04-27T02:47:21;94525.16;;;3.40;100.00
7990;BME280;4040;42.848;23.034;2023-04-27T02:53:12;94653.66;;;3.66;100.00
7990;BME280;4040;42.848;23.034;2023-04-27T02:59:01;94538.22;;;2.67;100.00
7990;BME280;4040;42.848;23.034;2023-04-27T03:04:53;94706.75;;;3.56;100.00
7990;BME280;4040;42.848;23.034;2023-04-27T03:15:06;94718.84;;;3.50;100.00
7990;BME280;4040;42.848;23.034;2023-04-27T03:21:06;94492.00;;;1.78;100.00
7990;BME280;4040;42.848;23.034;2023-04-27T03:26:55;94531.41;;;1.76;100.00
7990;BME280;4040;42.848;23.034;2023-04-27T03:32:45;94615.84;;;2.31;100.00
7990;BME280;4040;42.848;23.034;2023-04-27T03:38:34;94702.47;;;2.77;100.00
7990;BME280;4040;42.848;23.034;2023-04-27T03:44:23;94574.09;;;2.09;100.00
7990;BME280;4040;42.848;23.034;2023-04-27T03:50:14;94612.13;;;2.36;100.00
7990;BME280;4040;42.848;23.034;2023-04-27T03:56:03;94752.81;;;3.34;100.00
7990;BME280;4040;42.848;23.034;2023-04-27T04:01:52;94755.53;;;3.37;100.00
7990;BME280;4040;42.848;23.034;2023-04-27T04:07:43;94768.59;;;3.46;100.00
7990;BME280;4040;42.848;23.034;2023-04-27T04:17:53;94771.66;;;4.26;100.00
7990;BME280;4040;42.848;23.034;2023-04-27T04:23:43;94779.69;;;4.59;100.00
7990;BME280;4040;42.848;23.034;2023-04-27T04:29:32;94645.75;;;4.03;100.00
7990;BME280;4040;42.848;23.034;2023-04-27T04:35:21;94634.44;;;4.13;100.00
7990;BME280;4040;42.848;23.034;2023-04-27T04:41:11;94603.84;;;4.40;100.00
7990;BME280;4040;42.848;23.034;2023-04-27T04:47:00;94629.72;;;5.87;100.00
7990;BME280;4040;42.848;23.034;2023-04-27T04:52:49;94801.44;;;7.51;97.98
7990;BME280;4040;42.848;23.034;2023-04-27T04:58:39;94625.41;;;7.06;85.52
7990;BME280;4040;42.848;23.034;2023-04-27T05:04:28;94807.56;;;8.39;79.84
7990;BME280;4040;42.848;23.034;2023-04-27T05:10:17;94664.31;;;7.98;74.14
7990;BME280;4040;42.848;23.034;2023-04-27T05:20:29;94812.91;;;9.39;70.87
7990;BME280;4040;42.848;23.034;2023-04-27T05:26:18;94682.03;;;9.36;66.94
7990;BME280;4040;42.848;23.034;2023-04-27T05:32:07;94818.59;;;11.76;61.04
7990;BME280;4040;42.848;23.034;2023-04-27T05:38:01;94815.94;;;11.99;59.58
7990;BME280;4040;42.848;23.034;2023-04-27T05:43:50;94827.31;;;12.10;56.73
7990;BME280;4040;42.848;23.034;2023-04-27T05:49:39;94821.63;;;12.51;56.39
7990;BME280;4040;42.848;23.034;2023-04-27T05:55:30;94611.38;;;11.22;55.10
7990;BME280;4040;42.848;23.034;2023-04-27T06:01:19;94698.47;;;12.53;52.03
7990;BME280;4040;42.848;23.034;2023-04-27T06:07:09;94780.34;;;12.50;53.21
7990;BME280;4040;42.848;23.034;2023-04-27T06:13:00;94671.84;;;11.70;51.87
7990;BME280;4040;42.848;23.034;2023-04-27T06:23:10;94786.25;;;12.64;51.94
7990;BME280;4040;42.848;23.034;2023-04-27T06:29:01;94818.69;;;13.26;50.77
7990;BME280;4040;42.848;23.034;2023-04-27T06:34:50;94708.88;;;12.74;50.40
7990;BME280;4040;42.848;23.034;2023-04-27T06:40:39;94793.19;;;14.43;49.20
7990;BME280;4040;42.848;23.034;2023-04-27T06:46:30;94762.53;;;15.43;44.42
7990;BME280;4040;42.848;23.034;2023-04-27T06:52:18;94759.94;;;15.52;42.96
7990;BME280;4040;42.848;23.034;2023-04-27T06:58:08;94695.84;;;15.67;43.02
7990;BME280;4040;42.848;23.034;2023-04-27T07:03:58;94807.28;;;15.76;43.33
7990;BME280;4040;42.848;23.034;2023-04-27T07:09:47;94781.28;;;17.27;40.88
7990;BME280;4040;42.848;23.034;2023-04-27T07:15:36;94803.22;;;16.56;42.01
7990;BME280;4040;42.848;23.034;2023-04-27T07:25:49;94696.56;;;17.47;39.21
7990;BME280;4040;42.848;23.034;2023-04-27T07:31:38;94816.66;;;18.00;38.63
7990;BME280;4040;42.848;23.034;2023-04-27T07:37:27;94808.13;;;18.20;38.76
7990;BME280;4040;42.848;23.034;2023-04-27T07:43:18;94797.06;;;17.84;39.38
7990;BME280;4040;42.848;23.034;2023-04-27T07:49:06;94799.91;;;18.68;38.33
7990;BME280;4040;42.848;23.034;2023-04-27T07:54:55;94798.88;;;18.84;35.99
7990;BME280;4040;42.848;23.034;2023-04-27T08:00:46;94800.28;;;18.40;36.77
7990;BME280;4040;42.848;23.034;2023-04-27T08:06:34;94798.50;;;18.46;36.80
7990;BME280;4040;42.848;23.034;2023-04-27T08:12:23;94804.56;;;18.50;37.00
7990;BME280;4040;42.848;23.034;2023-04-27T08:18:13;94793.06;;;18.46;36.59
7990;BME280;4040;42.848;23.034;2023-04-27T08:28:25;94804.00;;;18.73;36.32
7990;BME280;4040;42.848;23.034;2023-04-27T08:34:16;94798.59;;;19.36;35.18
7990;BME280;4040;42.848;23.034;2023-04-27T08:40:06;94804.91;;;18.79;35.84
7990;BME280;4040;42.848;23.034;2023-04-27T08:45:56;94802.72;;;19.82;35.30
7990;BME280;4040;42.848;23.034;2023-04-27T08:51:46;94808.00;;;20.03;35.82
7990;BME280;4040;42.848;23.034;2023-04-27T08:57:35;94787.97;;;19.29;36.29
7990;BME280;4040;42.848;23.034;2023-04-27T09:03:24;94794.28;;;21.96;31.00
7990;BME280;4040;42.848;23.034;2023-04-27T09:09:22;94800.41;;;21.10;33.51
7990;BME280;4040;42.848;23.034;2023-04-27T09:15:11;94799.06;;;20.59;32.92
7990;BME280;4040;42.848;23.034;2023-04-27T09:21:00;94785.09;;;20.80;32.96
7990;BME280;4040;42.848;23.034;2023-04-27T09:27:21;94792.31;;;22.31;31.76
7990;BME280;4040;42.848;23.034;2023-04-27T09:33:11;94785.69;;;21.22;32.82
7990;BME280;4040;42.848;23.034;2023-04-27T09:39:02;94778.00;;;22.07;29.80
7990;BME280;4040;42.848;23.034;2023-04-27T09:41:31;94764.88;;;22.31;30.25
7990;BME280;4040;42.848;23.034;2023-04-27T09:47:21;94768.72;;;21.90;31.12
7990;BME280;4040;42.848;23.034;2023-04-27T09:53:13;94765.38;;;22.84;29.29
7990;BME280;4040;42.848;23.034;2023-04-27T09:59:31;94761.63;;;23.27;27.21
7990;BME280;4040;42.848;23.034;2023-04-27T10:05:34;94758.75;;;23.36;30.01
7990;BME280;4040;42.848;23.034;2023-04-27T10:11:36;94754.34;;;21.95;29.68
7990;BME280;4040;42.848;23.034;2023-04-27T10:17:29;94742.41;;;22.13;30.57
7990;BME280;4040;42.848;23.034;2023-04-27T10:23:24;94764.34;;;21.40;30.45
7990;BME280;4040;42.848;23.034;2023-04-27T10:33:41;94754.25;;;22.39;29.87
7990;BME280;4040;42.848;23.034;2023-04-27T10:39:35;94757.09;;;21.95;31.33
7990;BME280;4040;42.848;23.034;2023-04-27T10:45:28;94765.03;;;23.93;29.62
7990;BME280;4040;42.848;23.034;2023-04-27T10:51:17;94735.94;;;19.74;31.49
7990;BME280;4040;42.848;23.034;2023-04-27T10:57:08;94765.53;;;18.22;33.91
7990;BME280;4040;42.848;23.034;2023-04-27T11:03:10;94738.47;;;16.63;35.01
7990;BME280;4040;42.848;23.034;2023-04-27T11:09:00;94774.78;;;16.69;37.05
7990;BME280;4040;42.848;23.034;2023-04-27T11:14:57;94775.09;;;17.05;36.98
7990;BME280;4040;42.848;23.034;2023-04-27T11:20:48;94771.78;;;17.53;37.30
7990;BME280;4040;42.848;23.034;2023-04-27T11:26:37;94772.41;;;17.14;38.13
7990;BME280;4040;42.848;23.034;2023-04-27T11:29:06;94765.78;;;17.67;35.77
7990;BME280;4040;42.848;23.034;2023-04-27T11:35:00;94736.34;;;17.01;36.14
7990;BME280;4040;42.848;23.034;2023-04-27T11:40:58;94787.41;;;16.17;37.37
7990;BME280;4040;42.848;23.034;2023-04-27T11:46:48;94779.25;;;16.04;36.80
7990;BME280;4040;42.848;23.034;2023-04-27T11:52:39;94793.59;;;16.17;37.86
7990;BME280;4040;42.848;23.034;2023-04-27T11:58:28;94788.28;;;15.89;36.76
7990;BME280;4040;42.848;23.034;2023-04-27T12:04:17;94796.19;;;16.08;37.32
7990;BME280;4040;42.848;23.034;2023-04-27T12:10:08;94786.09;;;15.34;37.59
7990;BME280;4040;42.848;23.034;2023-04-27T12:15:57;94788.78;;;15.46;37.73
7990;BME280;4040;42.848;23.034;2023-04-27T12:21:46;94787.25;;;14.92;37.80
7990;BME280;4040;42.848;23.034;2023-04-27T12:27:36;94789.50;;;14.94;38.26
7990;BME280;4040;42.848;23.034;2023-04-27T12:33:25;94776.75;;;15.07;39.17
7990;BME280;4040;42.848;23.034;2023-04-27T12:39:15;94795.47;;;15.29;37.92
7990;BME280;4040;42.848;23.034;2023-04-27T12:45:07;94775.66;;;15.57;37.87
7990;BME280;4040;42.848;23.034;2023-04-27T12:50:56;94780.88;;;15.39;37.35
7990;BME280;4040;42.848;23.034;2023-04-27T12:56:44;94780.28;;;14.91;37.89
7990;BME280;4040;42.848;23.034;2023-04-27T13:02:35;94779.41;;;15.23;38.72
7990;BME280;4040;42.848;23.034;2023-04-27T13:08:23;94787.28;;;14.32;39.03
7990;BME280;4040;42.848;23.034;2023-04-27T13:14:12;94758.16;;;13.88;38.29
7990;BME280;4040;42.848;23.034;2023-04-27T13:20:03;94787.66;;;13.82;40.38
7990;BME280;4040;42.848;23.034;2023-04-27T13:25:52;94792.34;;;13.98;39.85
7990;BME280;4040;42.848;23.034;2023-04-27T13:36:04;94794.00;;;13.76;38.46
7990;BME280;4040;42.848;23.034;2023-04-27T13:41:53;94791.78;;;13.71;38.33
7990;BME280;4040;42.848;23.034;2023-04-27T13:47:42;94802.09;;;13.60;39.07
7990;BME280;4040;42.848;23.034;2023-04-27T13:53:32;94805.00;;;13.69;39.26
7990;BME280;4040;42.848;23.034;2023-04-27T13:59:21;94806.16;;;13.52;39.50
7990;BME280;4040;42.848;23.034;2023-04-27T14:05:10;94788.16;;;13.26;39.28
7990;BME280;4040;42.848;23.034;2023-04-27T14:11:00;94830.25;;;13.07;40.49
7990;BME280;4040;42.848;23.034;2023-04-27T14:16:49;94816.88;;;13.20;42.05
7990;BME280;4040;42.848;23.034;2023-04-27T14:22:38;94838.81;;;13.41;42.01
7990;BME280;4040;42.848;23.034;2023-04-27T14:28:28;94847.50;;;13.13;42.48
7990;BME280;4040;42.848;23.034;2023-04-27T14:38:39;94848.56;;;13.00;43.15
7990;BME280;4040;42.848;23.034;2023-04-27T14:44:29;94853.78;;;13.30;42.90
7990;BME280;4040;42.848;23.034;2023-04-27T14:50:18;94845.78;;;13.78;40.14
7990;BME280;4040;42.848;23.034;2023-04-27T14:56:07;94851.72;;;13.89;40.69
7990;BME280;4040;42.848;23.034;2023-04-27T15:01:58;94862.81;;;13.59;41.69
7990;BME280;4040;42.848;23.034;2023-04-27T15:07:46;94847.84;;;13.35;44.02
7990;BME280;4040;42.848;23.034;2023-04-27T15:13:36;94861.03;;;12.90;43.55
7990;BME280;4040;42.848;23.034;2023-04-27T15:19:26;94869.31;;;12.83;43.00
7990;BME280;4040;42.848;23.034;2023-04-27T15:25:15;94865.97;;;12.99;43.72
7990;BME280;4040;42.848;23.034;2023-04-27T15:31:04;94869.94;;;12.45;42.56
7990;BME280;4040;42.848;23.034;2023-04-27T15:41:16;94871.53;;;11.67;44.80
7990;BME280;4040;42.848;23.034;2023-04-27T15:47:05;94877.19;;;11.76;44.84
7990;BME280;4040;42.848;23.034;2023-04-27T15:52:54;94875.53;;;11.85;46.64
7990;BME280;4040;42.848;23.034;2023-04-27T15:58:45;94889.16;;;12.01;46.96
7990;BME280;4040;42.848;23.034;2023-04-27T16:04:34;94891.50;;;11.99;47.65
7990;BME280;4040;42.848;23.034;2023-04-27T16:10:23;94890.38;;;11.97;48.49
7990;BME280;4040;42.848;23.034;2023-04-27T16:16:13;94911.88;;;11.77;48.07
7990;BME280;4040;42.848;23.034;2023-04-27T16:22:02;94902.22;;;11.80;49.31
7990;BME280;4040;42.848;23.034;2023-04-27T16:27:51;94921.13;;;11.76;49.28
7990;BME280;4040;42.848;23.034;2023-04-27T16:33:41;94908.44;;;11.43;48.25
7990;BME280;4040;42.848;23.034;2023-04-27T16:43:51;94930.28;;;11.19;50.25
7990;BME280;4040;42.848;23.034;2023-04-27T16:49:42;94929.06;;;10.86;52.12
7990;BME280;4040;42.848;23.034;2023-04-27T16:55:31;94950.78;;;10.69;53.27
7990;BME280;4040;42.848;23.034;2023-04-27T17:01:22;94946.34;;;10.48;54.55
7990;BME280;4040;42.848;23.034;2023-04-27T17:07:13;94959.53;;;10.29;55.30
7990;BME280;4040;42.848;23.034;2023-04-27T17:13:02;94968.06;;;10.20;55.39
7990;BME280;4040;42.848;23.034;2023-04-27T17:18:51;94964.31;;;10.07;55.22
7990;BME280;4040;42.848;23.034;2023-04-27T17:24:41;94975.06;;;10.00;55.60
7990;BME280;4040;42.848;23.034;2023-04-27T17:30:30;94969.34;;;9.92;56.23
7990;BME280;4040;42.848;23.034;2023-04-27T17:36:19;94977.88;;;9.80;57.45
7990;BME280;4040;42.848;23.034;2023-04-27T17:46:31;94987.97;;;9.55;59.23
7990;BME280;4040;42.848;23.034;2023-04-27T17:52:20;94993.00;;;9.46;59.01
7990;BME280;4040;42.848;23.034;2023-04-27T17:58:09;95009.94;;;9.29;59.95
7990;BME280;4040;42.848;23.034;2023-04-27T18:03:59;95017.66;;;9.13;60.65
7990;BME280;4040;42.848;23.034;2023-04-27T18:09:47;95037.22;;;9.03;62.58
7990;BME280;4040;42.848;23.034;2023-04-27T18:15:37;95041.44;;;8.90;63.28
7990;BME280;4040;42.848;23.034;2023-04-27T18:21:27;95050.66;;;8.82;65.23
7990;BME280;4040;42.848;23.034;2023-04-27T18:27:16;95050.66;;;8.75;66.51
7990;BME280;4040;42.848;23.034;2023-04-27T18:33:05;95041.03;;;8.60;67.73
7990;BME280;4040;42.848;23.034;2023-04-27T18:38:56;95066.38;;;8.62;66.57
7990;BME280;4040;42.848;23.034;2023-04-27T18:49:07;95070.19;;;8.54;65.87
7990;BME280;4040;42.848;23.034;2023-04-27T18:54:58;95074.41;;;8.59;67.66
7990;BME280;4040;42.848;23.034;2023-04-27T19:00:46;95088.22;;;8.54;66.81
7990;BME280;4040;42.848;23.034;2023-04-27T19:06:35;95092.03;;;8.42;69.54
7990;BME280;4040;42.848;23.034;2023-04-27T19:12:25;95095.50;;;8.46;68.91
7990;BME280;4040;42.848;23.034;2023-04-27T19:18:14;95104.28;;;8.33;69.37
7990;BME280;4040;42.848;23.034;2023-04-27T19:24:03;95100.06;;;8.32;70.67
7990;BME280;4040;42.848;23.034;2023-04-27T19:29:54;95114.22;;;8.25;70.66
7990;BME280;4040;42.848;23.034;2023-04-27T19:35:44;95114.97;;;8.19;71.35
7990;BME280;4040;42.848;23.034;2023-04-27T19:41:32;95119.13;;;8.13;71.08
7990;BME280;4040;42.848;23.034;2023-04-27T19:51:44;95123.91;;;7.69;79.47
7990;BME280;4040;42.848;23.034;2023-04-27T19:57:33;95119.25;;;7.59;80.25
7990;BME280;4040;42.848;23.034;2023-04-27T20:03:22;95127.22;;;7.52;79.81
7990;BME280;4040;42.848;23.034;2023-04-27T20:09:13;95123.06;;;7.58;77.54
7990;BME280;4040;42.848;23.034;2023-04-27T20:15:01;95124.50;;;7.45;79.04
7990;BME280;4040;42.848;23.034;2023-04-27T20:20:51;95127.56;;;7.43;78.99
7990;BME280;4040;42.848;23.034;2023-04-27T20:26:41;95095.94;;;7.09;79.81
7990;BME280;4040;42.848;23.034;2023-04-27T20:32:30;95139.25;;;7.18;81.14
7990;BME280;4040;42.848;23.034;2023-04-27T20:38:19;95142.94;;;7.00;83.59
7990;BME280;4040;42.848;23.034;2023-04-27T20:44:09;95144.38;;;6.90;92.64
7990;BME280;4040;42.848;23.034;2023-04-27T20:54:21;95148.34;;;5.71;100.00
7990;BME280;4040;42.848;23.034;2023-04-27T21:00:12;95152.78;;;5.60;100.00
7990;BME280;4040;42.848;23.034;2023-04-27T21:06:02;95150.34;;;5.48;100.00
7990;BME280;4040;42.848;23.034;2023-04-27T21:11:50;95153.50;;;5.31;100.00
7990;BME280;4040;42.848;23.034;2023-04-27T21:17:41;95152.56;;;5.20;100.00
7990;BME280;4040;42.848;23.034;2023-04-27T21:23:32;95152.19;;;4.96;100.00
7990;BME280;4040;42.848;23.034;2023-04-27T21:29:21;95145.69;;;5.19;100.00
7990;BME280;4040;42.848;23.034;2023-04-27T21:35:12;95139.81;;;5.88;100.00
7990;BME280;4040;42.848;23.034;2023-04-27T21:41:00;95146.56;;;6.08;100.00
7990;BME280;4040;42.848;23.034;2023-04-27T21:46:49;95138.50;;;6.05;100.00
7990;BME280;4040;42.848;23.034;2023-04-27T21:57:00;95131.09;;;5.91;100.00
7990;BME280;4040;42.848;23.034;2023-04-27T22:08:31;95157.63;;;5.51;100.00
7990;BME280;4040;42.848;23.034;2023-04-27T22:14:21;95159.16;;;5.52;100.00
7990;BME280;4040;42.848;23.034;2023-04-27T22:20:10;95155.78;;;5.29;100.00
7990;BME280;4040;42.848;23.034;2023-04-27T22:26:00;95159.66;;;5.09;100.00
7990;BME280;4040;42.848;23.034;2023-04-27T22:31:49;95172.16;;;5.05;100.00
7990;BME280;4040;42.848;23.034;2023-04-27T22:37:37;95168.97;;;4.96;100.00
7990;BME280;4040;42.848;23.034;2023-04-27T22:43:28;95157.22;;;4.79;100.00
7990;BME280;4040;42.848;23.034;2023-04-27T22:49:17;95161.34;;;4.54;100.00
7990;BME280;4040;42.848;23.034;2023-04-27T22:55:05;95161.56;;;4.23;100.00
7990;BME280;4040;42.848;23.034;2023-04-27T23:00:55;95161.81;;;3.99;100.00
7990;BME280;4040;42.848;23.034;2023-04-27T23:11:06;95149.75;;;3.67;100.00
7990;BME280;4040;42.848;23.034;2023-04-27T23:16:56;95150.84;;;3.47;100.00
7990;BME280;4040;42.848;23.034;2023-04-27T23:22:44;95154.22;;;3.28;100.00
7990;BME280;4040;42.848;23.034;2023-04-27T23:28:33;95147.28;;;3.24;100.00
7990;BME280;4040;42.848;23.034;2023-04-27T23:34:24;95154.22;;;3.28;100.00
7990;BME280;4040;42.848;23.034;2023-04-27T23:40:12;95155.03;;;3.29;100.00
7990;BME280;4040;42.848;23.034;2023-04-27T23:46:02;95155.91;;;3.52;100.00
7990;BME280;4040;42.848;23.034;2023-04-27T23:51:53;95149.84;;;4.08;100.00
7990;BME280;4040;42.848;23.034;2023-04-27T23:57:41;95150.13;;;4.22;100.00
